createdAt,value
2016-09-13T00:00:47.666Z,96.7
2016-09-13T00:01:47.685Z,97.67
2016-09-13T00:02:47.704Z,97.67
2016-09-13T00:03:47.740Z,97.76
2016-09-13T00:04:47.766Z,97.67
2016-09-13T00:05:47.784Z,97.47
2016-09-13T00:06:47.493Z,97.76
2016-09-13T00:07:47.872Z,97.47
2016-09-13T00:08:47.856Z,97.57
2016-09-13T00:09:47.883Z,97.67
2016-09-13T00:10:47.903Z,97.76
2016-09-13T00:11:47.927Z,97.57
2016-09-13T00:12:47.630Z,97.19
2016-09-13T00:13:47.972Z,97.38
2016-09-13T00:14:47.694Z,97.67
2016-09-13T00:15:47.703Z,97.67
2016-09-13T00:16:47.748Z,97.38
2016-09-13T00:17:47.756Z,97.28
2016-09-13T00:18:47.783Z,97.47
2016-09-13T00:19:48.121Z,97.67
2016-09-13T00:20:48.147Z,97.47
2016-09-13T00:21:48.182Z,97.47
2016-09-13T00:22:47.883Z,97.38
2016-09-13T00:23:48.226Z,97.76
2016-09-13T00:24:48.255Z,97.86
2016-09-13T00:25:47.952Z,97.38
2016-09-13T00:26:48.301Z,97.47
2016-09-13T00:27:48.322Z,98.14
2016-09-13T00:28:48.339Z,98.14
2016-09-13T00:29:48.382Z,98.34
2016-09-13T00:30:48.417Z,98.14
2016-09-13T00:31:48.415Z,98.24
2016-09-13T00:32:48.441Z,98.24
2016-09-13T00:33:48.531Z,98.05
2016-09-13T00:34:48.177Z,98.24
2016-09-13T00:35:48.202Z,98.19
2016-09-13T00:36:48.545Z,97.86
2016-09-13T00:37:48.569Z,98.05
2016-09-13T00:38:48.269Z,98.05
2016-09-13T00:39:48.613Z,98.05
2016-09-13T00:40:48.646Z,98.58
2016-09-13T00:41:48.656Z,98.19
2016-09-13T00:42:48.690Z,98.58
2016-09-13T00:43:48.713Z,98
2016-09-13T00:44:48.427Z,98.58
2016-09-13T00:45:48.761Z,98.68
2016-09-13T00:46:48.807Z,98.58
2016-09-13T00:47:48.505Z,98.68
2016-09-13T00:48:48.832Z,98.39
2016-09-13T00:49:48.941Z,98.39
2016-09-13T00:50:48.881Z,98.77
2016-09-13T00:51:48.592Z,98.82
2016-09-13T00:52:48.931Z,98.77
2016-09-13T00:53:48.956Z,98.19
2016-09-13T00:54:48.975Z,98.1
2016-09-13T00:55:49.020Z,98.1
2016-09-13T00:56:49.051Z,98.1
2016-09-13T00:57:48.833Z,98.1
2016-09-13T00:58:49.078Z,98.1
2016-09-13T00:59:49.137Z,98.29
2016-09-13T01:00:49.138Z,98.58
2016-09-13T01:01:49.146Z,98.1
2016-09-13T01:02:49.179Z,98.39
2016-09-13T01:03:49.227Z,98.48
2016-09-13T01:04:48.918Z,98.1
2016-09-13T01:05:49.253Z,97.91
2016-09-13T01:06:49.275Z,98
2016-09-13T01:07:49.349Z,98
2016-09-13T01:08:49.333Z,98.19
2016-09-13T01:09:49.351Z,98.19
2016-09-13T01:10:49.065Z,98.1
2016-09-13T01:11:49.082Z,98.14
2016-09-13T01:12:49.411Z,98.24
2016-09-13T01:13:49.467Z,98
2016-09-13T01:14:49.160Z,98.29
2016-09-13T01:15:49.175Z,98.19
2016-09-13T01:16:49.516Z,98.39
2016-09-13T01:17:49.254Z,98
2016-09-13T01:18:49.562Z,98
2016-09-13T01:19:49.616Z,98.1
2016-09-13T01:20:49.615Z,98.48
2016-09-13T01:21:49.331Z,98.29
2016-09-13T01:22:49.662Z,98.29
2016-09-13T01:23:49.694Z,98.39
2016-09-13T01:24:49.719Z,98.58
2016-09-13T01:25:49.420Z,98.1
2016-09-13T01:26:49.756Z,98.19
2016-09-13T01:27:49.474Z,98.19
2016-09-13T01:28:49.503Z,98.1
2016-09-13T01:29:49.837Z,98.77
2016-09-13T01:30:49.855Z,98.68
2016-09-13T01:31:49.906Z,98.58
2016-09-13T01:32:49.901Z,98.68
2016-09-13T01:33:49.937Z,98.39
2016-09-13T01:34:49.961Z,98.77
2016-09-13T01:35:49.661Z,98.29
2016-09-13T01:36:49.683Z,98.48
2016-09-13T01:37:49.715Z,98.58
2016-09-13T01:38:49.743Z,98.39
2016-09-13T01:39:50.076Z,98.68
2016-09-13T01:40:49.803Z,98.77
2016-09-13T01:41:50.132Z,98.58
2016-09-13T01:42:50.152Z,98.29
2016-09-13T01:43:50.177Z,98.29
2016-09-13T01:44:50.191Z,98.48
2016-09-13T01:45:50.226Z,98.39
2016-09-13T01:46:50.246Z,98.68
2016-09-13T01:47:50.271Z,98.77
2016-09-13T01:48:50.285Z,98.58
2016-09-13T01:49:50.315Z,98.58
2016-09-13T01:50:50.346Z,98.58
2016-09-13T01:51:50.373Z,98.58
2016-09-13T01:52:50.393Z,98.77
2016-09-13T01:53:50.105Z,98.1
2016-09-13T01:54:50.123Z,98.39
2016-09-13T01:55:50.156Z,98.58
2016-09-13T01:56:50.486Z,98.48
2016-09-13T01:57:50.513Z,98.19
2016-09-13T01:58:50.531Z,98.68
2016-09-13T01:59:50.573Z,98.58
2016-09-13T02:00:50.595Z,98.68
2016-09-13T02:01:50.295Z,98.48
2016-09-13T02:02:50.638Z,98.48
2016-09-13T02:03:50.650Z,98.77
2016-09-13T02:04:50.694Z,98.77
2016-09-13T02:05:50.712Z,98.77
2016-09-13T02:06:50.788Z,98.58
2016-09-13T02:07:50.821Z,98.77
2016-09-13T02:08:50.472Z,98.68
2016-09-13T02:09:50.815Z,98.86
2016-09-13T02:10:50.834Z,98.58
2016-09-13T02:11:50.851Z,98.1
2016-09-13T02:12:50.569Z,98.1
2016-09-13T02:13:50.905Z,98.19
2016-09-13T02:14:50.671Z,98.19
2016-09-13T02:15:50.941Z,98.86
2016-09-13T02:16:50.986Z,98.58
2016-09-13T02:17:50.686Z,98.1
2016-09-13T02:18:51.015Z,98.19
2016-09-13T02:19:51.051Z,98.19
2016-09-13T02:20:51.065Z,98
2016-09-13T02:21:51.096Z,97.91
2016-09-13T02:22:50.805Z,98.1
2016-09-13T02:23:51.146Z,98.58
2016-09-13T02:24:51.165Z,98.86
2016-09-13T02:25:51.206Z,98.68
2016-09-13T02:26:51.218Z,98.1
2016-09-13T02:27:50.933Z,98.29
2016-09-13T02:28:51.314Z,98.68
2016-09-13T02:29:51.342Z,98
2016-09-13T02:30:51.004Z,98.1
2016-09-13T02:31:51.332Z,98.1
2016-09-13T02:32:51.355Z,98.1
2016-09-13T02:33:51.387Z,98
2016-09-13T02:34:51.104Z,98
2016-09-13T02:35:51.430Z,98.1
2016-09-13T02:36:51.484Z,98.1
2016-09-13T02:37:51.172Z,98.1
2016-09-13T02:38:51.516Z,98.86
2016-09-13T02:39:51.526Z,98.58
2016-09-13T02:40:51.617Z,98.58
2016-09-13T02:41:51.576Z,98.68
2016-09-13T02:42:51.593Z,98.68
2016-09-13T02:43:51.625Z,98.39
2016-09-13T02:44:51.331Z,98.48
2016-09-13T02:45:51.673Z,98.68
2016-09-13T02:46:51.695Z,99.01
2016-09-13T02:47:51.724Z,99.3
2016-09-13T02:48:51.431Z,99.49
2016-09-13T02:49:51.865Z,99.06
2016-09-13T02:50:51.484Z,99.4
2016-09-13T02:51:51.846Z,99.4
2016-09-13T02:52:51.845Z,99.78
2016-09-13T02:53:51.560Z,99.78
2016-09-13T02:54:51.898Z,99.87
2016-09-13T02:55:51.608Z,99.99
2016-09-13T02:56:51.941Z,99.78
2016-09-13T02:57:51.656Z,99.99
2016-09-13T02:58:51.983Z,99.99
2016-09-13T02:59:52.017Z,99.58
2016-09-13T03:00:52.036Z,99.68
2016-09-13T03:01:51.750Z,99.68
2016-09-13T03:02:52.090Z,99.99
2016-09-13T03:03:52.116Z,99.99
2016-09-13T03:04:52.131Z,99.99
2016-09-13T03:05:52.174Z,99.99
2016-09-13T03:06:52.197Z,99.99
2016-09-13T03:07:52.267Z,99.99
2016-09-13T03:08:51.916Z,99.99
2016-09-13T03:09:52.254Z,99.99
2016-09-13T03:10:52.285Z,99.99
2016-09-13T03:11:52.313Z,99.99
2016-09-13T03:12:52.325Z,99.99
2016-09-13T03:13:52.348Z,99.99
2016-09-13T03:14:52.520Z,99.99
2016-09-13T03:15:52.545Z,99.99
2016-09-13T03:16:52.304Z,99.99
2016-09-13T03:17:52.542Z,99.99
2016-09-13T03:18:52.304Z,99.99
2016-09-13T03:19:52.597Z,99.99
2016-09-13T03:20:52.668Z,99.99
2016-09-13T03:21:52.594Z,99.99
2016-09-13T03:22:52.605Z,99.99
2016-09-13T03:23:52.633Z,99.99
2016-09-13T03:24:52.613Z,99.99
2016-09-13T03:25:52.634Z,99.99
2016-09-13T03:26:52.666Z,99.99
2016-09-13T03:27:52.383Z,99.99
2016-09-13T03:28:52.391Z,99.99
2016-09-13T03:29:52.742Z,99.99
2016-09-13T03:30:52.753Z,99.99
2016-09-13T03:31:52.781Z,99.99
2016-09-13T03:32:52.800Z,99.99
2016-09-13T03:33:52.863Z,99.99
2016-09-13T03:34:52.857Z,99.99
2016-09-13T03:35:52.886Z,99.99
2016-09-13T03:36:52.954Z,99.99
2016-09-13T03:37:52.620Z,99.99
2016-09-13T03:38:52.647Z,99.99
2016-09-13T03:39:52.972Z,99.99
2016-09-13T03:40:52.996Z,99.99
2016-09-13T03:41:53.015Z,99.99
2016-09-13T03:42:53.043Z,99.99
2016-09-13T03:43:52.759Z,99.99
2016-09-13T03:44:52.891Z,99.99
2016-09-13T03:45:53.113Z,99.99
2016-09-13T03:46:53.144Z,99.99
2016-09-13T03:47:53.213Z,99.99
2016-09-13T03:48:53.227Z,99.99
2016-09-13T03:49:53.263Z,99.99
2016-09-13T03:50:53.239Z,99.99
2016-09-13T03:51:53.254Z,99.99
2016-09-13T03:52:53.304Z,99.99
2016-09-13T03:53:53.318Z,99.99
2016-09-13T03:54:53.024Z,99.99
2016-09-13T03:55:53.373Z,99.99
2016-09-13T03:56:53.379Z,99.99
2016-09-13T03:57:53.488Z,99.99
2016-09-13T03:58:53.113Z,99.99
2016-09-13T03:59:53.436Z,99.99
2016-09-13T04:00:53.486Z,99.99
2016-09-13T04:01:53.184Z,99.99
2016-09-13T04:02:53.203Z,99.99
2016-09-13T04:03:53.548Z,99.99
2016-09-13T04:04:53.254Z,99.99
2016-09-13T04:05:53.283Z,99.99
2016-09-13T04:06:53.619Z,99.99
2016-09-13T04:07:53.687Z,99.99
2016-09-13T04:08:53.361Z,99.99
2016-09-13T04:09:53.682Z,99.99
2016-09-13T04:10:53.763Z,99.99
2016-09-13T04:11:53.423Z,99.99
2016-09-13T04:12:53.758Z,99.99
2016-09-13T04:13:53.787Z,99.99
2016-09-13T04:14:53.806Z,99.99
2016-09-13T04:15:53.513Z,99.99
2016-09-13T04:16:54.056Z,99.99
2016-09-13T04:17:53.874Z,99.99
2016-09-13T04:18:53.908Z,99.99
2016-09-13T04:19:53.923Z,99.99
2016-09-13T04:20:53.637Z,99.99
2016-09-13T04:21:53.975Z,99.99
2016-09-13T04:22:53.681Z,99.99
2016-09-13T04:23:54.025Z,99.99
2016-09-13T04:24:54.048Z,99.99
2016-09-13T04:25:54.064Z,99.99
2016-09-13T04:26:54.094Z,99.99
2016-09-13T04:27:54.127Z,99.99
2016-09-13T04:28:53.822Z,99.99
2016-09-13T04:29:54.152Z,99.99
2016-09-13T04:30:54.186Z,99.99
2016-09-13T04:31:54.213Z,99.99
2016-09-13T04:32:53.924Z,99.99
2016-09-13T04:33:54.253Z,99.99
2016-09-13T04:34:54.297Z,99.99
2016-09-13T04:35:54.305Z,99.99
2016-09-13T04:36:54.321Z,99.99
2016-09-13T04:37:54.047Z,99.99
2016-09-13T04:38:54.064Z,99.99
2016-09-13T04:39:54.091Z,99.99
2016-09-13T04:40:54.425Z,99.99
2016-09-13T04:41:54.134Z,99.99
2016-09-13T04:42:54.162Z,99.99
2016-09-13T04:43:54.194Z,99.99
2016-09-13T04:44:54.203Z,99.99
2016-09-13T04:45:54.222Z,99.99
2016-09-13T04:46:54.556Z,99.99
2016-09-13T04:47:54.595Z,99.99
2016-09-13T04:48:54.596Z,99.99
2016-09-13T04:49:54.319Z,99.99
2016-09-13T04:50:54.355Z,99.99
2016-09-13T04:51:54.684Z,99.99
2016-09-13T04:52:54.699Z,99.99
2016-09-13T04:53:54.738Z,99.99
2016-09-13T04:54:54.761Z,99.99
2016-09-13T04:55:54.774Z,99.99
2016-09-13T04:56:54.494Z,99.99
2016-09-13T04:57:54.834Z,99.99
2016-09-13T04:58:54.531Z,99.99
2016-09-13T04:59:54.879Z,99.99
2016-09-13T05:00:54.575Z,99.99
2016-09-13T05:01:54.912Z,99.99
2016-09-13T05:02:54.938Z,99.99
2016-09-13T05:03:54.702Z,99.99
2016-09-13T05:04:55.012Z,99.99
2016-09-13T05:05:55.002Z,99.99
2016-09-13T05:06:54.722Z,99.99
2016-09-13T05:07:55.115Z,99.99
2016-09-13T05:08:55.077Z,99.99
2016-09-13T05:09:55.099Z,99.99
2016-09-13T05:10:55.128Z,99.99
2016-09-13T05:11:55.165Z,99.99
2016-09-13T05:12:55.169Z,99.99
2016-09-13T05:13:54.885Z,99.99
2016-09-13T05:14:55.227Z,99.99
2016-09-13T05:15:55.241Z,99.99
2016-09-13T05:16:55.021Z,99.99
2016-09-13T05:17:55.290Z,99.99
2016-09-13T05:18:55.381Z,99.99
2016-09-13T05:19:55.025Z,99.99
2016-09-13T05:20:55.414Z,99.99
2016-09-13T05:22:27.366Z,99.99
2016-09-13T05:22:55.098Z,99.99
2016-09-13T05:23:55.126Z,99.99
2016-09-13T05:24:55.461Z,99.99
2016-09-13T05:25:55.489Z,99.99
2016-09-13T05:26:55.201Z,99.99
2016-09-13T05:27:55.586Z,99.99
2016-09-13T05:28:55.564Z,99.99
2016-09-13T05:29:55.657Z,99.99
2016-09-13T05:30:55.286Z,99.99
2016-09-13T05:31:55.617Z,99.99
2016-09-13T05:32:55.648Z,99.68
2016-09-13T05:33:55.356Z,99.97
2016-09-13T05:34:55.385Z,99.78
2016-09-13T05:35:55.718Z,99.78
2016-09-13T05:36:55.740Z,98.91
2016-09-13T05:37:55.764Z,99.4
2016-09-13T05:38:55.799Z,99.01
2016-09-13T05:39:55.811Z,98.63
2016-09-13T05:40:55.837Z,98.34
2016-09-13T05:41:55.866Z,98.14
2016-09-13T05:42:55.946Z,97.86
2016-09-13T05:43:55.597Z,98.05
2016-09-13T05:44:55.939Z,97.91
2016-09-13T05:45:55.961Z,97.33
2016-09-13T05:46:55.667Z,97.04
2016-09-13T05:47:55.686Z,96.85
2016-09-13T05:48:56.027Z,96.75
2016-09-13T05:49:56.050Z,96.37
2016-09-13T05:50:55.770Z,96.37
2016-09-13T05:51:56.100Z,95.75
2016-09-13T05:52:55.809Z,94.68
2016-09-13T05:53:55.840Z,93.58
2016-09-13T05:54:56.173Z,91.8
2016-09-13T05:55:56.195Z,88.95
2016-09-13T05:56:56.232Z,87.07
2016-09-13T05:57:56.253Z,86.05
2016-09-13T05:58:56.276Z,83.98
2016-09-13T05:59:56.297Z,83.25
2016-09-13T06:00:56.315Z,82.23
2016-09-13T06:01:56.349Z,81.35
2016-09-13T06:02:56.257Z,79.85
2016-09-13T06:03:56.410Z,78.83
2016-09-13T06:04:56.421Z,77.51
2016-09-13T06:05:56.138Z,76.59
2016-09-13T06:06:56.181Z,76.2
2016-09-13T06:07:56.511Z,76.01
2016-09-13T06:08:56.223Z,75.04
2016-09-13T06:09:56.582Z,75.33
2016-09-13T06:10:56.585Z,74.21
2016-09-13T06:11:56.607Z,74.59
2016-09-13T06:12:56.641Z,74.69
2016-09-13T06:13:56.658Z,74.21
2016-09-13T06:14:56.379Z,73.53
2016-09-13T06:15:56.717Z,73.33
2016-09-13T06:16:56.758Z,72.98
2016-09-13T06:17:56.445Z,73.08
2016-09-13T06:18:56.808Z,72.89
2016-09-13T06:19:56.827Z,71.72
2016-09-13T06:20:56.844Z,71.56
2016-09-13T06:21:56.881Z,71.28
2016-09-13T06:22:56.598Z,71.28
2016-09-13T06:23:56.948Z,70.7
2016-09-13T06:24:56.965Z,70.98
2016-09-13T06:25:57.035Z,70.44
2016-09-13T06:26:57.016Z,69.67
2016-09-13T06:27:57.051Z,68.92
2016-09-13T06:28:57.068Z,68.44
2016-09-13T06:29:56.785Z,67.99
2016-09-13T06:30:57.124Z,66.92
2016-09-13T06:31:57.159Z,66.92
2016-09-13T06:32:56.863Z,66.47
2016-09-13T06:33:57.219Z,64.95
2016-09-13T06:34:56.926Z,64.95
2016-09-13T06:35:57.369Z,64.95
2016-09-13T06:36:57.316Z,64.56
2016-09-13T06:37:57.015Z,63.71
2016-09-13T06:38:57.365Z,63.52
2016-09-13T06:39:57.407Z,63.62
2016-09-13T06:40:57.416Z,63.23
2016-09-13T06:41:57.444Z,63.52
2016-09-13T06:42:57.173Z,63.32
2016-09-13T06:43:57.502Z,63.32
2016-09-13T06:44:57.672Z,63.36
2016-09-13T06:45:57.255Z,62.77
2016-09-13T06:46:57.639Z,62.74
2016-09-13T06:47:57.619Z,62.97
2016-09-13T06:48:57.643Z,61.8
2016-09-13T06:49:57.674Z,61.54
2016-09-13T06:50:57.705Z,61.74
2016-09-13T06:51:57.737Z,61.05
2016-09-13T06:52:57.655Z,60.57
2016-09-13T06:53:57.595Z,59.82
2016-09-13T06:54:57.515Z,59.33
2016-09-13T06:55:57.845Z,58.39
2016-09-13T06:56:57.555Z,57.74
2016-09-13T06:57:57.915Z,57.09
2016-09-13T06:58:57.942Z,56.7
2016-09-13T06:59:57.655Z,56.79
2016-09-13T07:00:57.684Z,56.43
2016-09-13T07:01:58.053Z,56.43
2016-09-13T07:02:58.056Z,56.52
2016-09-13T07:03:58.086Z,57.18
2016-09-13T07:04:58.128Z,57.28
2016-09-13T07:05:58.139Z,57.84
2016-09-13T07:06:58.179Z,57.84
2016-09-13T07:07:58.209Z,58.29
2016-09-13T07:08:58.239Z,57.93
2016-09-13T07:09:58.260Z,57.9
2016-09-13T07:10:58.301Z,58.39
2016-09-13T07:11:58.326Z,58.59
2016-09-13T07:12:58.050Z,58.49
2016-09-13T07:13:58.067Z,57.35
2016-09-13T07:14:58.420Z,57.74
2016-09-13T07:15:58.450Z,57.74
2016-09-13T07:16:58.474Z,57.64
2016-09-13T07:17:58.510Z,57.74
2016-09-13T07:18:58.529Z,56.99
2016-09-13T07:19:58.567Z,56.04
2016-09-13T07:20:58.600Z,55.87
2016-09-13T07:21:58.626Z,56.99
2016-09-13T07:22:58.651Z,56.6
2016-09-13T07:23:58.754Z,56.33
2016-09-13T07:24:58.396Z,54.53
2016-09-13T07:25:58.797Z,53.78
2016-09-13T07:26:58.467Z,54.07
2016-09-13T07:27:58.813Z,55.22
2016-09-13T07:28:58.850Z,55.71
2016-09-13T07:29:58.888Z,55.87
2016-09-13T07:30:58.905Z,56.16
2016-09-13T07:31:58.931Z,57.21
2016-09-13T07:32:58.968Z,57.37
2016-09-13T07:33:59.021Z,58.15
2016-09-13T07:34:58.700Z,57.86
2016-09-13T07:35:58.941Z,57.37
2016-09-13T07:36:59.107Z,58.15
2016-09-13T07:37:58.805Z,60.27
2016-09-13T07:38:59.153Z,62.09
2016-09-13T07:39:59.162Z,64.26
2016-09-13T07:40:58.876Z,66.53
2016-09-13T07:41:59.222Z,67.96
2016-09-13T07:42:59.268Z,69.44
2016-09-13T07:43:58.974Z,71.25
2016-09-13T07:44:59.420Z,72.51
2016-09-13T07:45:59.029Z,73.44
2016-09-13T07:46:59.367Z,74.28
2016-09-13T07:47:59.419Z,75.15
2016-09-13T07:48:59.118Z,75.6
2016-09-13T07:49:59.146Z,76.18
2016-09-13T07:50:59.482Z,76.62
2016-09-13T07:51:59.250Z,76.72
2016-09-13T07:52:59.548Z,76.43
2016-09-13T07:53:59.279Z,77.01
2016-09-13T07:54:59.601Z,77.59
2016-09-13T07:55:59.661Z,77.45
2016-09-13T07:56:59.676Z,77.45
2016-09-13T07:57:59.680Z,77.45
2016-09-13T07:58:59.708Z,78.03
2016-09-13T07:59:59.752Z,78.33
2016-09-13T08:00:59.772Z,78.03
2016-09-13T08:01:59.792Z,78.17
2016-09-13T08:02:59.840Z,78.42
2016-09-13T08:03:59.860Z,78.33
2016-09-13T08:04:59.888Z,78.71
2016-09-13T08:05:59.601Z,78.08
2016-09-13T08:06:59.984Z,78.66
2016-09-13T08:07:59.963Z,78.17
2016-09-13T08:08:59.670Z,78.21
2016-09-13T08:10:00.023Z,78.02
2016-09-13T08:11:00.044Z,76.46
2016-09-13T08:11:59.753Z,76.46
2016-09-13T08:13:00.110Z,76.46
2016-09-13T08:13:59.831Z,76.86
2016-09-13T08:14:59.841Z,77.24
2016-09-13T08:16:00.191Z,77.44
2016-09-13T08:16:59.905Z,77.09
2016-09-13T08:18:00.233Z,77.57
2016-09-13T08:19:00.275Z,76.7
2016-09-13T08:20:00.303Z,76.51
2016-09-13T08:21:00.011Z,76.41
2016-09-13T08:22:00.354Z,76.89
2016-09-13T08:23:00.374Z,76.79
2016-09-13T08:24:00.094Z,76.6
2016-09-13T08:25:00.427Z,76.41
2016-09-13T08:26:00.461Z,76.35
2016-09-13T08:27:00.491Z,76.93
2016-09-13T08:28:00.510Z,76.25
2016-09-13T08:29:00.235Z,76.83
2016-09-13T08:30:00.581Z,76.35
2016-09-13T08:31:00.598Z,76.25
2016-09-13T08:32:00.626Z,76.1
2016-09-13T08:33:00.652Z,75.23
2016-09-13T08:34:00.963Z,75.71
2016-09-13T08:35:00.717Z,76.39
2016-09-13T08:36:00.424Z,76.39
2016-09-13T08:37:00.978Z,75.9
2016-09-13T08:38:00.793Z,75.81
2016-09-13T08:39:00.865Z,75.81
2016-09-13T08:40:00.560Z,75.9
2016-09-13T08:41:00.583Z,75.13
2016-09-13T08:42:00.904Z,75.26
2016-09-13T08:43:00.636Z,75.55
2016-09-13T08:44:00.653Z,75.16
2016-09-13T08:45:00.999Z,74.68
2016-09-13T08:46:01.029Z,74.77
2016-09-13T08:47:00.734Z,74.19
2016-09-13T08:48:01.140Z,74.81
2016-09-13T08:49:01.125Z,74.13
2016-09-13T08:50:00.825Z,72.39
2016-09-13T08:51:01.165Z,73.26
2016-09-13T08:52:01.187Z,73
2016-09-13T08:53:00.927Z,71.26
2016-09-13T08:54:01.249Z,71.55
2016-09-13T08:55:01.272Z,72.13
2016-09-13T08:56:01.337Z,72.03
2016-09-13T08:57:01.337Z,70.9
2016-09-13T08:58:01.084Z,71.58
2016-09-13T08:59:01.416Z,72.07
2016-09-13T09:00:01.413Z,71.68
2016-09-13T09:01:01.136Z,71.29
2016-09-13T09:02:01.466Z,70.32
2016-09-13T09:03:01.277Z,69.38
2016-09-13T09:04:01.217Z,68.99
2016-09-13T09:05:01.301Z,70.26
2016-09-13T09:06:01.600Z,69.77
2016-09-13T09:07:01.615Z,68.7
2016-09-13T09:08:01.387Z,67.83
2016-09-13T09:09:01.740Z,66.89
2016-09-13T09:10:01.703Z,66.69
2016-09-13T09:11:01.416Z,67.24
2016-09-13T09:12:01.760Z,66.02
2016-09-13T09:13:01.480Z,65.92
2016-09-13T09:14:01.813Z,65.04
2016-09-13T09:15:01.833Z,65.14
2016-09-13T09:16:01.669Z,64.65
2016-09-13T09:17:01.909Z,63.97
2016-09-13T09:18:01.937Z,63.2
2016-09-13T09:19:01.645Z,63.81
2016-09-13T09:20:01.992Z,64.1
2016-09-13T09:21:01.705Z,64
2016-09-13T09:22:02.041Z,62.77
2016-09-13T09:23:02.078Z,62.77
2016-09-13T09:24:02.299Z,61.8
2016-09-13T09:25:02.285Z,61.51
2016-09-13T09:26:02.327Z,61.31
2016-09-13T09:27:01.876Z,58.39
2016-09-13T09:28:02.275Z,58.2
2016-09-13T09:29:02.301Z,58.32
2016-09-13T09:30:02.325Z,58.32
2016-09-13T09:31:02.356Z,58.61
2016-09-13T09:32:02.332Z,59.39
2016-09-13T09:33:02.052Z,58.32
2016-09-13T09:34:02.418Z,59.1
2016-09-13T09:35:02.442Z,57.57
2016-09-13T09:36:02.450Z,58.06
2016-09-13T09:37:02.479Z,58.45
2016-09-13T09:38:02.532Z,58.35
2016-09-13T09:39:34.528Z,56.4
2016-09-13T09:40:02.363Z,56.89
2016-09-13T09:41:02.594Z,56.6
2016-09-13T09:42:02.631Z,56.7
2016-09-13T09:43:02.658Z,55.52
2016-09-13T09:44:02.677Z,56.21
2016-09-13T09:45:02.709Z,55.46
2016-09-13T09:46:02.747Z,55.46
2016-09-13T09:47:02.772Z,54.38
2016-09-13T09:48:02.861Z,53.7
2016-09-13T09:49:02.836Z,53.41
2016-09-13T09:50:02.865Z,53.41
2016-09-13T09:51:02.890Z,53.09
2016-09-13T09:52:02.607Z,53.5
2016-09-13T09:53:02.640Z,53.8
2016-09-13T09:54:02.978Z,54.36
2016-09-13T09:55:03.001Z,54.09
2016-09-13T09:56:03.041Z,54.87
2016-09-13T09:57:03.064Z,54.87
2016-09-13T09:58:03.085Z,53.83
2016-09-13T09:59:03.119Z,53.21
2016-09-13T10:00:03.165Z,53.11
2016-09-13T10:01:03.262Z,53.53
2016-09-13T10:02:03.209Z,53.63
2016-09-13T10:03:03.243Z,53.05
2016-09-13T10:04:03.271Z,53.44
2016-09-13T10:05:03.139Z,53.05
2016-09-13T10:06:03.011Z,52.56
2016-09-13T10:07:03.034Z,53.34
2016-09-13T10:08:03.490Z,53.05
2016-09-13T10:09:03.110Z,52.95
2016-09-13T10:10:03.497Z,52.56
2016-09-13T10:11:03.486Z,53.24
2016-09-13T10:12:03.202Z,52.36
2016-09-13T10:13:03.539Z,51.97
2016-09-13T10:14:03.569Z,52.85
2016-09-13T10:15:03.592Z,53.44
2016-09-13T10:16:03.306Z,53.73
2016-09-13T10:17:03.351Z,51.8
2016-09-13T10:18:03.692Z,52.29
2016-09-13T10:19:03.398Z,51.9
2016-09-13T10:20:03.744Z,52.48
2016-09-13T10:21:03.459Z,52.58
2016-09-13T10:22:03.817Z,52.29
2016-09-13T10:23:03.528Z,52.19
2016-09-13T10:24:03.557Z,52.29
2016-09-13T10:25:03.901Z,52.09
2016-09-13T10:26:03.604Z,51.53
2016-09-13T10:27:03.752Z,51.12
2016-09-13T10:28:03.991Z,51.31
2016-09-13T10:29:04.082Z,51.21
2016-09-13T10:30:04.038Z,51.53
2016-09-13T10:31:04.074Z,50.82
2016-09-13T10:32:04.107Z,49.39
2016-09-13T10:33:04.141Z,50.95
2016-09-13T10:34:04.169Z,51.14
2016-09-13T10:35:03.879Z,50.95
2016-09-13T10:36:04.218Z,50.75
2016-09-13T10:37:04.253Z,51.14
2016-09-13T10:38:03.965Z,50.85
2016-09-13T10:39:04.322Z,51.73
2016-09-13T10:40:04.345Z,51.53
2016-09-13T10:41:04.367Z,51.17
2016-09-13T10:42:04.422Z,49.71
2016-09-13T10:43:04.429Z,50.2
2016-09-13T10:44:04.480Z,49.71
2016-09-13T10:45:04.510Z,49.41
2016-09-13T10:46:04.522Z,48.73
2016-09-13T10:47:04.540Z,48.83
2016-09-13T10:48:04.588Z,49.32
2016-09-13T10:49:04.616Z,49.02
2016-09-13T10:50:04.640Z,48.93
2016-09-13T10:51:04.670Z,48.54
2016-09-13T10:52:04.711Z,48.83
2016-09-13T10:53:04.749Z,49.32
2016-09-13T10:54:04.452Z,49.02
2016-09-13T10:55:04.789Z,49.8
2016-09-13T10:56:04.818Z,50.02
2016-09-13T10:57:04.865Z,49.9
2016-09-13T10:58:04.885Z,50.12
2016-09-13T10:59:05.110Z,48.07
2016-09-13T11:00:04.951Z,49.12
2016-09-13T11:01:04.977Z,49.32
2016-09-13T11:02:05.003Z,48.63
2016-09-13T11:03:05.031Z,49.12
2016-09-13T11:04:05.065Z,48.83
2016-09-13T11:05:05.089Z,48.65
2016-09-13T11:06:05.140Z,48.75
2016-09-13T11:07:05.152Z,47.48
2016-09-13T11:08:05.430Z,47.09
2016-09-13T11:09:05.374Z,46.99
2016-09-13T11:10:05.401Z,47.28
2016-09-13T11:11:05.392Z,47.19
2016-09-13T11:12:05.422Z,47.38
2016-09-13T11:13:05.403Z,47.38
2016-09-13T11:14:05.152Z,47.48
2016-09-13T11:15:05.397Z,47.09
2016-09-13T11:16:05.421Z,46.92
2016-09-13T11:17:05.476Z,47.19
2016-09-13T11:18:05.581Z,47.6
2016-09-13T11:19:05.211Z,47.11
2016-09-13T11:20:05.570Z,47.11
2016-09-13T11:21:05.580Z,46.43
2016-09-13T11:22:05.670Z,46.23
2016-09-13T11:23:05.651Z,46.14
2016-09-13T11:24:05.672Z,45.06
2016-09-13T11:25:05.713Z,44.96
2016-09-13T11:26:05.422Z,45.55
2016-09-13T11:27:05.835Z,46.31
2016-09-13T11:28:05.797Z,47.11
2016-09-13T11:29:05.871Z,46.41
2016-09-13T11:30:05.871Z,46.82
2016-09-13T11:31:05.901Z,46.92
2016-09-13T11:32:05.907Z,46.33
2016-09-13T11:33:05.952Z,45.28
2016-09-13T11:34:05.970Z,44.98
2016-09-13T11:35:06.018Z,44.96
2016-09-13T11:36:05.811Z,44.96
2016-09-13T11:37:05.760Z,45.28
2016-09-13T11:38:06.123Z,45.06
2016-09-13T11:39:06.150Z,44.77
2016-09-13T11:40:06.161Z,44.98
2016-09-13T11:41:06.187Z,44.69
2016-09-13T11:42:06.225Z,44.4
2016-09-13T11:43:06.260Z,44.89
2016-09-13T11:44:05.971Z,44.59
2016-09-13T11:45:06.310Z,45.26
2016-09-13T11:46:06.038Z,45.18
2016-09-13T11:47:06.377Z,45.28
2016-09-13T11:48:06.093Z,45.18
2016-09-13T11:49:06.429Z,45.47
2016-09-13T11:50:06.456Z,45.28
2016-09-13T11:51:06.487Z,45.2
2016-09-13T11:52:06.531Z,44.89
2016-09-13T11:53:06.549Z,45.2
2016-09-13T11:54:06.610Z,43.34
2016-09-13T11:55:06.608Z,44.4
2016-09-13T11:56:06.639Z,44.2
2016-09-13T11:57:06.674Z,44.79
2016-09-13T11:58:06.398Z,43.91
2016-09-13T11:59:06.428Z,44.3
2016-09-13T12:00:06.768Z,44.69
2016-09-13T12:01:06.485Z,44.3
2016-09-13T12:02:06.837Z,43.13
2016-09-13T12:03:06.852Z,43.81
2016-09-13T12:04:06.894Z,44.2
2016-09-13T12:05:06.926Z,44.49
2016-09-13T12:06:06.951Z,44.2
2016-09-13T12:07:06.977Z,44.2
2016-09-13T12:08:07.007Z,44.2
2016-09-13T12:09:07.031Z,44.59
2016-09-13T12:10:07.079Z,44.59
2016-09-13T12:11:07.091Z,45.1
2016-09-13T12:12:07.135Z,44.79
2016-09-13T12:13:07.173Z,44.79
2016-09-13T12:14:07.206Z,44.49
2016-09-13T12:15:07.225Z,45.2
2016-09-13T12:16:07.250Z,44.32
2016-09-13T12:17:07.350Z,43.84
2016-09-13T12:18:07.324Z,44.42
2016-09-13T12:19:07.427Z,44.91
2016-09-13T12:20:07.373Z,44.4
2016-09-13T12:21:07.410Z,44.91
2016-09-13T12:22:07.440Z,44.13
2016-09-13T12:23:07.482Z,44.13
2016-09-13T12:24:07.493Z,43.62
2016-09-13T12:25:07.600Z,43.73
2016-09-13T12:26:07.253Z,43.73
2016-09-13T12:27:07.585Z,43.34
2016-09-13T12:28:07.643Z,43.23
2016-09-13T12:29:07.339Z,44.23
2016-09-13T12:30:07.706Z,44.42
2016-09-13T12:31:07.713Z,44.42
2016-09-13T12:32:07.748Z,44.59
2016-09-13T12:33:07.769Z,43.93
2016-09-13T12:34:07.828Z,43.73
2016-09-13T12:35:07.831Z,43.13
2016-09-13T12:36:07.935Z,43.84
2016-09-13T12:37:07.915Z,43.62
2016-09-13T12:38:07.938Z,43.62
2016-09-13T12:39:07.986Z,44.03
2016-09-13T12:40:08.185Z,44.01
2016-09-13T12:41:08.030Z,42.95
2016-09-13T12:42:08.049Z,44.03
2016-09-13T12:43:07.757Z,43.54
2016-09-13T12:44:08.109Z,44.91
2016-09-13T12:45:07.831Z,44.42
2016-09-13T12:46:08.171Z,44.13
2016-09-13T12:47:08.250Z,44.71
2016-09-13T12:48:08.232Z,44.23
2016-09-13T12:49:08.262Z,44.23
2016-09-13T12:50:08.295Z,43.15
2016-09-13T12:51:08.332Z,42.85
2016-09-13T12:52:08.358Z,41.88
2016-09-13T12:53:08.389Z,43.05
2016-09-13T12:54:40.410Z,42.76
2016-09-13T12:55:08.451Z,42.85
2016-09-13T12:56:08.475Z,43.05
2016-09-13T12:57:08.520Z,43.05